NY/NJ Local METAR Reports

No Warnings, Watches, or Advisories
KNYC - NYC/Central Park, NY, USA
Distance from station: NE 4mi, 7km
Updated: 08/01/2021 12:51pm
Partly cloudy
Partly cloudy
 Wind from varies
Wind: varies 6 mph , 9 km/h
Temperature: 75°F , 24°C
Dew Point: 61°F , 16°C
Humidity: 61%
Barometer: 29.92 inHg , 1013.2 hPa
Clouds: Partly cloudy
Visibility: 10 miles , 16 km
Cloud details: Few Clouds 3500 ft
Few Clouds 7000 ft
Partly cloudy 11000 ft
2021/08/01 16:51 KNYC 011651Z AUTO VRB05KT 10SM FEW035 FEW070 SCT110 24/16 A2992 RMK AO2 SLP124 T02390161 $
KEWR - Newark, NJ, USA
Distance from station: WSW 8mi, 13km
Updated: 08/01/2021 12:51pm
Mostly cloudy
Mostly cloudy
 Wind from S
Wind: S 8 mph , 13 km/h
Temperature: 79°F , 26°C
Dew Point: 61°F , 16°C
Humidity: 54%
Barometer: 29.89 inHg , 1012.2 hPa
Clouds: Mostly cloudy
Visibility: 10 miles , 16 km
Cloud details: Partly cloudy 3800 ft
Partly cloudy 8000 ft
Mostly cloudy 11000 ft
Mostly cloudy 18000 ft
Mostly cloudy 25000 ft
2021/08/01 16:51 KEWR 011651Z 17007KT 10SM SCT038 SCT080 BKN110 BKN180 BKN250 26/16 A2989 RMK AO2 SLP121 T02560161
 
KLGA - NYC/La Guardia, NY, USA
Distance from station: ENE 8mi, 13km
Updated: 08/01/2021 12:51pm
Mostly cloudy
Mostly cloudy
 Wind from S
Wind: S 14 mph , 22 km/h
Temperature: 77°F , 25°C
Dew Point: 59°F , 15°C
Humidity: 54%
Barometer: 29.89 inHg , 1012.2 hPa
Clouds: Mostly cloudy
Visibility: 10 miles , 16 km
Cloud details: Few Clouds 4000 ft
Partly cloudy 8500 ft
Mostly cloudy 13000 ft
Mostly cloudy 25000 ft
2021/08/01 16:51 KLGA 011651Z 17012KT 10SM FEW040 SCT085 BKN130 BKN250 25/15 A2989 RMK AO2 SLP122 T02500150
KTEB - Teterboro, NJ, USA
Distance from station: N 9mi, 14km
Updated: 08/01/2021 12:51pm
Overcast
Overcast
 Wind from S
Wind: S 9 mph , 15 km/h
Temperature: 75°F , 24°C
Dew Point: 59°F , 15°C
Humidity: 57%
Barometer: 29.88 inHg , 1011.9 hPa
Clouds: Overcast
Visibility: 10 miles , 16 km
Cloud details: Partly cloudy 7000 ft
Overcast 11000 ft
2021/08/01 16:51 KTEB 011651Z 18008KT 10SM SCT070 OVC110 24/15 A2988 RMK AO2 SLP118 T02440150
 
KJFK - NYC/Jfk Arpt, NY, USA
Distance from station: ESE 16mi, 25km
Updated: 08/01/2021 12:51pm
Mostly cloudy
Mostly cloudy
 Wind from SSE
Wind: SSE 10 mph , 17 km/h
Temperature: 75°F , 24°C
Dew Point: 61°F , 16°C
Humidity: 61%
Barometer: 29.92 inHg , 1013.2 hPa
Clouds: Mostly cloudy
Visibility: 10 miles , 16 km
Cloud details: Few Clouds 5000 ft
Partly cloudy 12000 ft
Mostly cloudy 15000 ft
Mostly cloudy 25000 ft
2021/08/01 16:51 KJFK 011651Z 15009KT 10SM FEW050 SCT120 BKN150 BKN250 24/16 A2992 RMK AO2 SLP130 T02390156
KCDW - Caldwell, NJ, USA
Distance from station: NW 16mi, 26km
Updated: 08/01/2021 12:53pm
Overcast
Overcast
 Wind from SW
Wind: SW 6 mph , 9 km/h
Temperature: 77°F , 25°C
Dew Point: 59°F , 15°C
Humidity: 54%
Barometer: 29.90 inHg , 1012.5 hPa
Clouds: Overcast
Visibility: 10 miles , 16 km
Cloud details: Few Clouds 3900 ft
Mostly cloudy 6500 ft
Overcast 10000 ft
2021/08/01 16:53 KCDW 011653Z 23005KT 10SM FEW039 BKN065 OVC100 25/15 A2990 RMK AO2 RAB30E43 SLP130 P0000 T02500150
 
KMMU - Morristown Muni, NJ, USA
Distance from station: W 20mi, 33km
Updated: 08/01/2021 1:45pm
Light rain, Overcast
Light rain, Overcast
 Wind from WNW
Wind: WNW 8 mph , 13 km/h
Temperature: 72°F , 22°C
Dew Point: 70°F , 21°C
Humidity: 94%
Barometer: 29.91 inHg , 1012.9 hPa
Summary: Light rain
Clouds: Overcast
Visibility: 5 miles , 8 km
Cloud details: Partly cloudy 4400 ft
Mostly cloudy 6500 ft
Overcast 8000 ft
2021/08/01 17:45 KMMU 011745Z 29007KT 5SM -RA SCT044 BKN065 OVC080 22/21 A2991
KHPN - White Plains, NY, USA
Distance from station: NE 28mi, 46km
Updated: 08/01/2021 12:56pm
Partly cloudy
Partly cloudy
 Wind from S
Wind: S 6 mph , 9 km/h
Temperature: 72°F , 22°C
Dew Point: 61°F , 16°C
Humidity: 69%
Barometer: 29.91 inHg , 1012.9 hPa
Clouds: Partly cloudy
Visibility: 10 miles , 16 km
Cloud details: Partly cloudy 3000 ft
2021/08/01 16:56 KHPN 011656Z 17005KT 10SM SCT030 22/16 A2991 RMK AO2 SLP123 T02220161 $
 
KFRG - Farmingdale, NY, USA
Distance from station: E 32mi, 52km
Updated: 08/01/2021 12:53pm
Mostly cloudy
Mostly cloudy
 Wind from S
Wind: S 13 mph , 20 km/h
Temperature: 75°F , 24°C
Dew Point: 57°F , 14°C
Humidity: 54%
Barometer: 29.91 inHg , 1012.9 hPa
Clouds: Mostly cloudy
Visibility: 10 miles , 16 km
Cloud details: Mostly cloudy 10000 ft
2021/08/01 16:53 KFRG 011653Z 17011KT 10SM BKN100 24/14 A2991 RMK AO2 SLP129 T02390144
KSMQ - Somerville, NJ, USA
Distance from station: WSW 34mi, 55km
Updated: 08/01/2021 12:53pm
Light rain, Overcast
Light rain, Overcast
 Wind from calm
Wind: Calm
Temperature: 72°F , 22°C
Dew Point: 63°F , 17°C
Humidity: 73%
Barometer: 29.90 inHg , 1012.5 hPa
Summary: Light rain
Clouds: Overcast
Visibility: 4 miles , 6 km
Cloud details: Overcast 7500 ft
2021/08/01 16:53 KSMQ 011653Z AUTO 00000KT 4SM -RA OVC075 22/17 A2990 RMK AO2 RAB45 SLP123 P0001 T02170167
 
KBLM - Belmar/Farmdale, NJ, USA
Distance from station: S 40mi, 64km
Updated: 08/01/2021 12:56pm
Partly cloudy
Partly cloudy
 Wind from SSE
Wind: SSE 13 mph , 20 km/h
Temperature: 77°F , 25°C
Dew Point: 61°F , 16°C
Humidity: 57%
Barometer: 29.91 inHg , 1012.9 hPa
Clouds: Partly cloudy
Visibility: 10 miles , 16 km
Cloud details: Partly cloudy 9000 ft
2021/08/01 16:56 KBLM 011656Z AUTO 15011KT 10SM SCT090 25/16 A2991 RMK AO2 SLP129 T02500156
K12N - Andover, NJ, USA
Distance from station: WNW 41mi, 67km
Updated: 08/01/2021 12:54pm

 Wind from calm
Wind: Calm
Temperature: 66°F , 19°C
Dew Point: 64°F , 18°C
Humidity: 94%
Barometer: 29.93 inHg , 1013.5 hPa
2021/08/01 16:54 K12N 011654Z AUTO 00000KT 19/18 A2993 RMK AO1 SLP132 P0004 T01940178
 
KFWN - Sussex, NJ, USA
Distance from station: NW 45mi, 72km
Updated: 08/01/2021 12:53pm
Light rain, Overcast
Light rain, Overcast
 Wind from varies
Wind: varies 7 mph , 11 km/h
Temperature: 66°F , 19°C
Dew Point: 63°F , 17°C
Humidity: 88%
Barometer: 29.93 inHg , 1013.5 hPa
Summary: Light rain
Clouds: Overcast
Visibility: 6 miles , 10 km
Cloud details: Mostly cloudy 7000 ft
Overcast 8500 ft
2021/08/01 16:53 KFWN 011653Z AUTO VRB06KT 6SM -RA BKN070 OVC085 19/17 A2993 RMK AO2 RAB10 SLP133 P0002 T01940167
KISP - Islip, NY, USA
Distance from station: E 49mi, 79km
Updated: 08/01/2021 12:56pm
Mostly cloudy
Mostly cloudy
 Wind from SSE
Wind: SSE 12 mph , 19 km/h
Temperature: 75°F , 24°C
Dew Point: 57°F , 14°C
Humidity: 54%
Barometer: 29.92 inHg , 1013.2 hPa
Clouds: Mostly cloudy
Visibility: 10 miles , 16 km
Cloud details: Few Clouds 3000 ft
Mostly cloudy 16000 ft
Mostly cloudy 25000 ft
2021/08/01 16:56 KISP 011656Z 16010KT 10SM FEW030 BKN160 BKN250 24/14 A2992 RMK AO2 SLP130 T02390139 $